sensor_id;sensor_type;location;lat;lon;timestamp;pressure;altitude;pressure_sealevel;temperature
72236;BMP280;60146;52.498;13.462;2024-02-14T00:01:23;97879.06;;;4.88
72236;BMP280;60146;52.498;13.462;2024-02-14T00:03:48;97898.59;;;4.94
72236;BMP280;60146;52.498;13.462;2024-02-14T00:06:14;97892.03;;;4.96
72236;BMP280;60146;52.498;13.462;2024-02-14T00:08:39;97894.75;;;5.00
72236;BMP280;60146;52.498;13.462;2024-02-14T00:11:05;97913.69;;;4.92
72236;BMP280;60146;52.498;13.462;2024-02-14T00:13:31;97913.84;;;4.87
72236;BMP280;60146;52.498;13.462;2024-02-14T00:15:59;97896.31;;;5.01
72236;BMP280;60146;52.498;13.462;2024-02-14T00:18:24;97923.91;;;4.88
72236;BMP280;60146;52.498;13.462;2024-02-14T00:20:50;97907.13;;;4.78
72236;BMP280;60146;52.498;13.462;2024-02-14T00:23:15;97891.44;;;4.83
72236;BMP280;60146;52.498;13.462;2024-02-14T00:25:40;97912.31;;;4.69
72236;BMP280;60146;52.498;13.462;2024-02-14T00:28:06;97886.66;;;4.60
72236;BMP280;60146;52.498;13.462;2024-02-14T00:30:31;97884.06;;;4.60
72236;BMP280;60146;52.498;13.462;2024-02-14T00:32:56;97862.28;;;4.52
72236;BMP280;60146;52.498;13.462;2024-02-14T00:35:22;97823.09;;;4.70
72236;BMP280;60146;52.498;13.462;2024-02-14T00:37:48;97861.19;;;4.62
72236;BMP280;60146;52.498;13.462;2024-02-14T00:40:13;97848.84;;;4.59
72236;BMP280;60146;52.498;13.462;2024-02-14T00:42:39;97830.09;;;4.62
72236;BMP280;60146;52.498;13.462;2024-02-14T00:45:06;97826.44;;;4.63
72236;BMP280;60146;52.498;13.462;2024-02-14T00:47:34;97806.34;;;4.68
72236;BMP280;60146;52.498;13.462;2024-02-14T00:50:00;97823.84;;;4.63
72236;BMP280;60146;52.498;13.462;2024-02-14T00:52:25;97828.88;;;4.59
72236;BMP280;60146;52.498;13.462;2024-02-14T00:54:50;97824.94;;;4.53
72236;BMP280;60146;52.498;13.462;2024-02-14T00:57:16;97824.78;;;4.50
72236;BMP280;60146;52.498;13.462;2024-02-14T00:59:43;97802.53;;;4.49
72236;BMP280;60146;52.498;13.462;2024-02-14T01:02:08;97811.81;;;4.42
72236;BMP280;60146;52.498;13.462;2024-02-14T01:04:34;97792.59;;;4.43
72236;BMP280;60146;52.498;13.462;2024-02-14T01:07:02;97794.16;;;4.35
72236;BMP280;60146;52.498;13.462;2024-02-14T01:09:27;97773.25;;;4.40
72236;BMP280;60146;52.498;13.462;2024-02-14T01:11:53;97773.13;;;4.37
72236;BMP280;60146;52.498;13.462;2024-02-14T01:14:18;97770.53;;;4.37
72236;BMP280;60146;52.498;13.462;2024-02-14T01:16:44;97775.41;;;4.38
72236;BMP280;60146;52.498;13.462;2024-02-14T01:19:10;97779.84;;;4.38
72236;BMP280;60146;52.498;13.462;2024-02-14T01:21:36;97778.00;;;4.38
72236;BMP280;60146;52.498;13.462;2024-02-14T01:24:01;97782.25;;;4.51
72236;BMP280;60146;52.498;13.462;2024-02-14T01:26:27;97803.13;;;4.46
72236;BMP280;60146;52.498;13.462;2024-02-14T01:28:52;97798.41;;;4.48
72236;BMP280;60146;52.498;13.462;2024-02-14T01:31:17;97807.56;;;4.45
72236;BMP280;60146;52.498;13.462;2024-02-14T01:33:43;97819.75;;;4.45
72236;BMP280;60146;52.498;13.462;2024-02-14T01:36:09;97809.66;;;4.44
72236;BMP280;60146;52.498;13.462;2024-02-14T01:38:34;97805.13;;;4.49
72236;BMP280;60146;52.498;13.462;2024-02-14T01:41:02;97790.97;;;4.38
72236;BMP280;60146;52.498;13.462;2024-02-14T01:43:28;97773.44;;;4.35
72236;BMP280;60146;52.498;13.462;2024-02-14T01:45:55;97742.78;;;4.45
72236;BMP280;60146;52.498;13.462;2024-02-14T01:48:21;97735.78;;;4.46
72236;BMP280;60146;52.498;13.462;2024-02-14T01:50:47;97754.22;;;4.36
72236;BMP280;60146;52.498;13.462;2024-02-14T01:53:12;97747.03;;;4.42
72236;BMP280;60146;52.498;13.462;2024-02-14T01:55:38;97767.94;;;4.37
72236;BMP280;60146;52.498;13.462;2024-02-14T01:58:04;97763.97;;;4.39
72236;BMP280;60146;52.498;13.462;2024-02-14T02:00:30;97770.84;;;4.35
72236;BMP280;60146;52.498;13.462;2024-02-14T02:02:57;97769.28;;;4.34
72236;BMP280;60146;52.498;13.462;2024-02-14T02:05:22;97746.72;;;4.43
72236;BMP280;60146;52.498;13.462;2024-02-14T02:07:48;97758.34;;;4.37
72236;BMP280;60146;52.498;13.462;2024-02-14T02:10:14;97745.97;;;4.51
72236;BMP280;60146;52.498;13.462;2024-02-14T02:12:40;97765.94;;;4.42
72236;BMP280;60146;52.498;13.462;2024-02-14T02:15:07;97767.31;;;4.40
72236;BMP280;60146;52.498;13.462;2024-02-14T02:17:36;97762.31;;;4.35
72236;BMP280;60146;52.498;13.462;2024-02-14T02:20:01;97744.75;;;4.40
72236;BMP280;60146;52.498;13.462;2024-02-14T02:22:27;97745.69;;;4.36
72236;BMP280;60146;52.498;13.462;2024-02-14T02:24:54;97733.78;;;4.43
72236;BMP280;60146;52.498;13.462;2024-02-14T02:27:20;97744.13;;;4.43
72236;BMP280;60146;52.498;13.462;2024-02-14T02:29:45;97746.78;;;4.35
72236;BMP280;60146;52.498;13.462;2024-02-14T02:32:11;97715.47;;;4.40
72236;BMP280;60146;52.498;13.462;2024-02-14T02:34:36;97724.03;;;4.40
72236;BMP280;60146;52.498;13.462;2024-02-14T02:37:05;97731.78;;;4.40
72236;BMP280;60146;52.498;13.462;2024-02-14T02:39:33;97739.13;;;4.38
72236;BMP280;60146;52.498;13.462;2024-02-14T02:41:59;97732.44;;;4.37
72236;BMP280;60146;52.498;13.462;2024-02-14T02:44:24;97739.44;;;4.45
72236;BMP280;60146;52.498;13.462;2024-02-14T02:46:50;97749.50;;;4.38
72236;BMP280;60146;52.498;13.462;2024-02-14T02:49:15;97741.09;;;4.33
72236;BMP280;60146;52.498;13.462;2024-02-14T02:51:41;97729.06;;;4.45
72236;BMP280;60146;52.498;13.462;2024-02-14T02:54:06;97753.47;;;4.36
72236;BMP280;60146;52.498;13.462;2024-02-14T02:56:33;97747.03;;;4.33
72236;BMP280;60146;52.498;13.462;2024-02-14T02:58:58;97739.88;;;4.30
72236;BMP280;60146;52.498;13.462;2024-02-14T03:01:24;97720.38;;;4.24
72236;BMP280;60146;52.498;13.462;2024-02-14T03:03:50;97726.03;;;4.26
72236;BMP280;60146;52.498;13.462;2024-02-14T03:06:15;97693.72;;;4.32
72236;BMP280;60146;52.498;13.462;2024-02-14T03:08:41;97712.00;;;4.27
72236;BMP280;60146;52.498;13.462;2024-02-14T03:11:07;97701.19;;;4.34
72236;BMP280;60146;52.498;13.462;2024-02-14T03:13:33;97693.56;;;4.29
72236;BMP280;60146;52.498;13.462;2024-02-14T03:16:00;97680.94;;;4.27
72236;BMP280;60146;52.498;13.462;2024-02-14T03:18:25;97675.00;;;4.35
72236;BMP280;60146;52.498;13.462;2024-02-14T03:20:51;97676.66;;;4.31
72236;BMP280;60146;52.498;13.462;2024-02-14T03:23:18;97668.13;;;4.39
72236;BMP280;60146;52.498;13.462;2024-02-14T03:25:44;97699.50;;;4.29
72236;BMP280;60146;52.498;13.462;2024-02-14T03:28:09;97695.22;;;4.25
72236;BMP280;60146;52.498;13.462;2024-02-14T03:30:35;97680.00;;;4.23
72236;BMP280;60146;52.498;13.462;2024-02-14T03:33:02;97671.16;;;4.24
72236;BMP280;60146;52.498;13.462;2024-02-14T03:35:28;97663.88;;;4.26
72236;BMP280;60146;52.498;13.462;2024-02-14T03:37:53;97664.31;;;4.28
72236;BMP280;60146;52.498;13.462;2024-02-14T03:40:18;97645.44;;;4.36
72236;BMP280;60146;52.498;13.462;2024-02-14T03:42:47;97664.78;;;4.39
72236;BMP280;60146;52.498;13.462;2024-02-14T03:45:13;97662.03;;;4.35
72236;BMP280;60146;52.498;13.462;2024-02-14T03:47:39;97662.94;;;4.39
72236;BMP280;60146;52.498;13.462;2024-02-14T03:50:08;97676.19;;;4.38
72236;BMP280;60146;52.498;13.462;2024-02-14T03:52:33;97657.63;;;4.36
72236;BMP280;60146;52.498;13.462;2024-02-14T03:54:59;97650.72;;;4.40
72236;BMP280;60146;52.498;13.462;2024-02-14T03:57:25;97668.84;;;4.40
72236;BMP280;60146;52.498;13.462;2024-02-14T04:00:00;97655.31;;;4.34
72236;BMP280;60146;52.498;13.462;2024-02-14T04:02:28;97651.63;;;4.44
72236;BMP280;60146;52.498;13.462;2024-02-14T04:04:53;97651.16;;;4.50
72236;BMP280;60146;52.498;13.462;2024-02-14T04:07:19;97667.16;;;4.44
72236;BMP280;60146;52.498;13.462;2024-02-14T04:09:44;97669.31;;;4.50
72236;BMP280;60146;52.498;13.462;2024-02-14T04:12:10;97680.41;;;4.59
72236;BMP280;60146;52.498;13.462;2024-02-14T04:14:35;97715.81;;;4.46
72236;BMP280;60146;52.498;13.462;2024-02-14T04:17:01;97705.44;;;4.46
72236;BMP280;60146;52.498;13.462;2024-02-14T04:19:27;97686.81;;;4.53
72236;BMP280;60146;52.498;13.462;2024-02-14T04:21:53;97702.66;;;4.60
72236;BMP280;60146;52.498;13.462;2024-02-14T04:24:18;97745.63;;;4.61
72236;BMP280;60146;52.498;13.462;2024-02-14T04:26:44;97752.38;;;4.53
72236;BMP280;60146;52.498;13.462;2024-02-14T04:29:09;97733.00;;;4.59
72236;BMP280;60146;52.498;13.462;2024-02-14T04:31:34;97734.69;;;4.64
72236;BMP280;60146;52.498;13.462;2024-02-14T04:34:00;97731.63;;;4.70
72236;BMP280;60146;52.498;13.462;2024-02-14T04:36:26;97738.81;;;4.73
72236;BMP280;60146;52.498;13.462;2024-02-14T04:38:51;97765.94;;;4.67
72236;BMP280;60146;52.498;13.462;2024-02-14T04:41:17;97746.69;;;4.76
72236;BMP280;60146;52.498;13.462;2024-02-14T04:43:42;97752.34;;;4.70
72236;BMP280;60146;52.498;13.462;2024-02-14T04:46:08;97745.31;;;4.79
72236;BMP280;60146;52.498;13.462;2024-02-14T04:48:37;97760.09;;;4.78
72236;BMP280;60146;52.498;13.462;2024-02-14T04:51:03;97758.72;;;4.81
72236;BMP280;60146;52.498;13.462;2024-02-14T04:53:30;97756.75;;;4.86
72236;BMP280;60146;52.498;13.462;2024-02-14T04:55:55;97765.59;;;4.85
72236;BMP280;60146;52.498;13.462;2024-02-14T04:58:21;97753.22;;;4.90
72236;BMP280;60146;52.498;13.462;2024-02-14T05:00:47;97750.94;;;4.81
72236;BMP280;60146;52.498;13.462;2024-02-14T05:03:12;97763.31;;;4.84
72236;BMP280;60146;52.498;13.462;2024-02-14T05:05:37;97744.22;;;4.88
72236;BMP280;60146;52.498;13.462;2024-02-14T05:08:03;97748.34;;;4.89
72236;BMP280;60146;52.498;13.462;2024-02-14T05:10:29;97738.16;;;4.84
72236;BMP280;60146;52.498;13.462;2024-02-14T05:12:54;97755.53;;;4.84
72236;BMP280;60146;52.498;13.462;2024-02-14T05:15:20;97734.94;;;4.87
72236;BMP280;60146;52.498;13.462;2024-02-14T05:17:45;97701.22;;;4.87
72236;BMP280;60146;52.498;13.462;2024-02-14T05:20:11;97712.63;;;4.94
72236;BMP280;60146;52.498;13.462;2024-02-14T05:22:37;97723.31;;;5.01
72236;BMP280;60146;52.498;13.462;2024-02-14T05:25:03;97753.81;;;5.04
72236;BMP280;60146;52.498;13.462;2024-02-14T05:27:30;97737.47;;;5.04
72236;BMP280;60146;52.498;13.462;2024-02-14T05:29:55;97735.34;;;4.97
72236;BMP280;60146;52.498;13.462;2024-02-14T05:32:20;97696.88;;;4.99
72236;BMP280;60146;52.498;13.462;2024-02-14T05:34:46;97698.88;;;5.02
72236;BMP280;60146;52.498;13.462;2024-02-14T05:37:11;97702.66;;;5.13
72236;BMP280;60146;52.498;13.462;2024-02-14T05:39:36;97709.41;;;5.06
72236;BMP280;60146;52.498;13.462;2024-02-14T05:42:02;97713.06;;;5.05
72236;BMP280;60146;52.498;13.462;2024-02-14T05:44:27;97698.84;;;5.10
72236;BMP280;60146;52.498;13.462;2024-02-14T05:46:55;97728.72;;;5.16
72236;BMP280;60146;52.498;13.462;2024-02-14T05:49:21;97740.03;;;5.20
72236;BMP280;60146;52.498;13.462;2024-02-14T05:51:47;97731.00;;;5.18
72236;BMP280;60146;52.498;13.462;2024-02-14T05:54:12;97720.19;;;5.16
72236;BMP280;60146;52.498;13.462;2024-02-14T05:56:37;97701.56;;;5.22
72236;BMP280;60146;52.498;13.462;2024-02-14T05:59:03;97718.59;;;5.23
72236;BMP280;60146;52.498;13.462;2024-02-14T06:01:28;97721.19;;;5.23
72236;BMP280;60146;52.498;13.462;2024-02-14T06:03:54;97727.66;;;5.17
72236;BMP280;60146;52.498;13.462;2024-02-14T06:06:19;97711.31;;;5.17
72236;BMP280;60146;52.498;13.462;2024-02-14T06:08:44;97713.00;;;5.21
72236;BMP280;60146;52.498;13.462;2024-02-14T06:11:10;97730.84;;;5.23
72236;BMP280;60146;52.498;13.462;2024-02-14T06:13:37;97743.63;;;5.28
72236;BMP280;60146;52.498;13.462;2024-02-14T06:16:03;97725.44;;;5.28
72236;BMP280;60146;52.498;13.462;2024-02-14T06:18:28;97705.75;;;5.35
72236;BMP280;60146;52.498;13.462;2024-02-14T06:20:54;97743.59;;;5.36
72236;BMP280;60146;52.498;13.462;2024-02-14T06:23:19;97725.28;;;5.32
72236;BMP280;60146;52.498;13.462;2024-02-14T06:25:45;97719.03;;;5.33
72236;BMP280;60146;52.498;13.462;2024-02-14T06:28:10;97722.16;;;5.47
72236;BMP280;60146;52.498;13.462;2024-02-14T06:30:36;97744.16;;;5.41
72236;BMP280;60146;52.498;13.462;2024-02-14T06:33:01;97733.78;;;5.50
72236;BMP280;60146;52.498;13.462;2024-02-14T06:35:28;97758.81;;;5.46
72236;BMP280;60146;52.498;13.462;2024-02-14T06:37:56;97750.88;;;5.42
72236;BMP280;60146;52.498;13.462;2024-02-14T06:40:29;97743.34;;;5.57
72236;BMP280;60146;52.498;13.462;2024-02-14T06:47:00;97807.69;;;5.72
72236;BMP280;60146;52.498;13.462;2024-02-14T06:49:25;97810.19;;;5.60
72236;BMP280;60146;52.498;13.462;2024-02-14T06:51:51;97815.09;;;5.62
72236;BMP280;60146;52.498;13.462;2024-02-14T06:54:16;97819.34;;;5.66
72236;BMP280;60146;52.498;13.462;2024-02-14T06:56:44;97826.31;;;5.74
72236;BMP280;60146;52.498;13.462;2024-02-14T06:59:10;97818.97;;;5.76
72236;BMP280;60146;52.498;13.462;2024-02-14T07:01:35;97808.75;;;5.79
72236;BMP280;60146;52.498;13.462;2024-02-14T07:04:00;97829.03;;;5.86
72236;BMP280;60146;52.498;13.462;2024-02-14T07:06:26;97858.25;;;5.95
72236;BMP280;60146;52.498;13.462;2024-02-14T07:08:53;97862.88;;;5.97
72236;BMP280;60146;52.498;13.462;2024-02-14T07:11:18;97864.84;;;6.00
72236;BMP280;60146;52.498;13.462;2024-02-14T07:13:44;97878.13;;;6.07
72236;BMP280;60146;52.498;13.462;2024-02-14T07:16:09;97918.25;;;6.18
72236;BMP280;60146;52.498;13.462;2024-02-14T07:18:34;97951.53;;;6.24
72236;BMP280;60146;52.498;13.462;2024-02-14T07:21:00;97966.81;;;6.26
72236;BMP280;60146;52.498;13.462;2024-02-14T07:23:26;97952.47;;;6.20
72236;BMP280;60146;52.498;13.462;2024-02-14T07:25:52;97940.00;;;6.34
72236;BMP280;60146;52.498;13.462;2024-02-14T07:28:17;97982.03;;;6.44
72236;BMP280;60146;52.498;13.462;2024-02-14T07:30:43;98007.25;;;6.43
72236;BMP280;60146;52.498;13.462;2024-02-14T07:33:09;98019.91;;;6.53
72236;BMP280;60146;52.498;13.462;2024-02-14T07:35:36;98057.38;;;6.52
72236;BMP280;60146;52.498;13.462;2024-02-14T07:38:02;98087.91;;;6.63
72236;BMP280;60146;52.498;13.462;2024-02-14T07:40:27;98117.56;;;6.71
72236;BMP280;60146;52.498;13.462;2024-02-14T07:42:56;98138.53;;;6.66
72236;BMP280;60146;52.498;13.462;2024-02-14T07:45:21;98181.97;;;6.82
72236;BMP280;60146;52.498;13.462;2024-02-14T07:47:49;98159.41;;;6.86
72236;BMP280;60146;52.498;13.462;2024-02-14T07:50:14;98154.09;;;6.82
72236;BMP280;60146;52.498;13.462;2024-02-14T07:52:42;98185.75;;;6.93
72236;BMP280;60146;52.498;13.462;2024-02-14T07:55:09;98188.44;;;6.96
72236;BMP280;60146;52.498;13.462;2024-02-14T07:57:37;98233.72;;;7.12
72236;BMP280;60146;52.498;13.462;2024-02-14T08:00:03;98262.38;;;7.03
72236;BMP280;60146;52.498;13.462;2024-02-14T08:02:29;98237.75;;;7.01
72236;BMP280;60146;52.498;13.462;2024-02-14T08:04:55;98254.81;;;7.19
72236;BMP280;60146;52.498;13.462;2024-02-14T08:07:20;98300.28;;;7.21
72236;BMP280;60146;52.498;13.462;2024-02-14T08:09:45;98258.47;;;7.18
72236;BMP280;60146;52.498;13.462;2024-02-14T08:12:11;98267.84;;;7.19
72236;BMP280;60146;52.498;13.462;2024-02-14T08:14:36;98305.03;;;7.27
72236;BMP280;60146;52.498;13.462;2024-02-14T08:17:02;98281.91;;;7.26
72236;BMP280;60146;52.498;13.462;2024-02-14T08:19:27;98228.16;;;7.22
72236;BMP280;60146;52.498;13.462;2024-02-14T08:21:52;98201.75;;;7.31
72236;BMP280;60146;52.498;13.462;2024-02-14T08:24:26;98202.66;;;7.35
72236;BMP280;60146;52.498;13.462;2024-02-14T08:26:54;98127.63;;;7.37
72236;BMP280;60146;52.498;13.462;2024-02-14T08:29:20;98135.81;;;7.47
72236;BMP280;60146;52.498;13.462;2024-02-14T08:31:46;98133.38;;;7.43
72236;BMP280;60146;52.498;13.462;2024-02-14T08:34:12;98104.84;;;7.46
72236;BMP280;60146;52.498;13.462;2024-02-14T08:36:37;98126.38;;;7.55
72236;BMP280;60146;52.498;13.462;2024-02-14T08:39:07;98069.19;;;7.46
72236;BMP280;60146;52.498;13.462;2024-02-14T08:41:35;97983.75;;;7.52
72236;BMP280;60146;52.498;13.462;2024-02-14T08:44:00;97991.25;;;7.53
72236;BMP280;60146;52.498;13.462;2024-02-14T08:46:26;97956.78;;;7.56
72236;BMP280;60146;52.498;13.462;2024-02-14T08:48:52;97943.19;;;7.63
72236;BMP280;60146;52.498;13.462;2024-02-14T08:51:17;97960.66;;;7.62
72236;BMP280;60146;52.498;13.462;2024-02-14T08:53:45;97922.59;;;7.69
72236;BMP280;60146;52.498;13.462;2024-02-14T08:56:11;97905.66;;;7.75
72236;BMP280;60146;52.498;13.462;2024-02-14T08:58:36;97928.47;;;7.78
72236;BMP280;60146;52.498;13.462;2024-02-14T09:01:02;97902.94;;;7.84
72236;BMP280;60146;52.498;13.462;2024-02-14T09:03:27;97868.88;;;7.88
72236;BMP280;60146;52.498;13.462;2024-02-14T09:05:52;97856.03;;;8.07
72236;BMP280;60146;52.498;13.462;2024-02-14T09:08:22;97872.44;;;8.07
72236;BMP280;60146;52.498;13.462;2024-02-14T09:10:49;97861.78;;;8.12
72236;BMP280;60146;52.498;13.462;2024-02-14T09:13:14;97874.81;;;8.12
72236;BMP280;60146;52.498;13.462;2024-02-14T09:15:40;97884.13;;;8.25
72236;BMP280;60146;52.498;13.462;2024-02-14T09:18:05;97888.88;;;8.35
72236;BMP280;60146;52.498;13.462;2024-02-14T09:20:31;97894.75;;;8.32
72236;BMP280;60146;52.498;13.462;2024-02-14T09:22:56;97847.81;;;8.32
72236;BMP280;60146;52.498;13.462;2024-02-14T09:25:24;97822.41;;;8.29
72236;BMP280;60146;52.498;13.462;2024-02-14T09:27:50;97824.59;;;8.27
72236;BMP280;60146;52.498;13.462;2024-02-14T09:30:16;97793.47;;;8.34
72236;BMP280;60146;52.498;13.462;2024-02-14T09:32:45;97737.84;;;8.57
72236;BMP280;60146;52.498;13.462;2024-02-14T09:35:11;97788.09;;;8.69
72236;BMP280;60146;52.498;13.462;2024-02-14T09:37:36;97835.97;;;8.61
72236;BMP280;60146;52.498;13.462;2024-02-14T09:40:08;97818.34;;;8.43
72236;BMP280;60146;52.498;13.462;2024-02-14T09:42:38;97742.19;;;8.38
72236;BMP280;60146;52.498;13.462;2024-02-14T09:45:08;97690.06;;;8.26
72236;BMP280;60146;52.498;13.462;2024-02-14T09:47:35;97616.66;;;8.24
72236;BMP280;60146;52.498;13.462;2024-02-14T09:50:03;97592.44;;;8.39
72236;BMP280;60146;52.498;13.462;2024-02-14T09:52:32;97536.16;;;8.38
72236;BMP280;60146;52.498;13.462;2024-02-14T09:54:58;97524.25;;;8.55
72236;BMP280;60146;52.498;13.462;2024-02-14T09:57:24;97496.72;;;8.58
72236;BMP280;60146;52.498;13.462;2024-02-14T09:59:51;97441.75;;;8.66
72236;BMP280;60146;52.498;13.462;2024-02-14T10:02:19;97465.91;;;8.63
72236;BMP280;60146;52.498;13.462;2024-02-14T10:08:31;97377.63;;;8.47
72236;BMP280;60146;52.498;13.462;2024-02-14T10:10:57;97305.28;;;8.62
72236;BMP280;60146;52.498;13.462;2024-02-14T10:13:26;97297.47;;;8.44
72236;BMP280;60146;52.498;13.462;2024-02-14T10:15:51;97221.91;;;8.69
72236;BMP280;60146;52.498;13.462;2024-02-14T10:18:17;97219.41;;;8.76
72236;BMP280;60146;52.498;13.462;2024-02-14T10:20:55;97198.88;;;8.52
72236;BMP280;60146;52.498;13.462;2024-02-14T10:23:21;97171.59;;;8.47
72236;BMP280;60146;52.498;13.462;2024-02-14T10:25:48;97123.25;;;8.52
72236;BMP280;60146;52.498;13.462;2024-02-14T10:28:15;97041.75;;;8.59
72236;BMP280;60146;52.498;13.462;2024-02-14T10:30:45;97053.03;;;8.66
72236;BMP280;60146;52.498;13.462;2024-02-14T10:33:10;97028.69;;;8.84
72236;BMP280;60146;52.498;13.462;2024-02-14T10:35:37;97055.38;;;9.00
72236;BMP280;60146;52.498;13.462;2024-02-14T10:38:06;97048.69;;;9.02
72236;BMP280;60146;52.498;13.462;2024-02-14T10:40:34;97055.22;;;8.90
72236;BMP280;60146;52.498;13.462;2024-02-14T10:43:01;97012.16;;;9.06
72236;BMP280;60146;52.498;13.462;2024-02-14T10:45:26;97054.25;;;8.72
72236;BMP280;60146;52.498;13.462;2024-02-14T10:47:56;96961.25;;;8.86
72236;BMP280;60146;52.498;13.462;2024-02-14T10:50:22;96949.44;;;8.67
72236;BMP280;60146;52.498;13.462;2024-02-14T10:52:50;96939.84;;;8.74
72236;BMP280;60146;52.498;13.462;2024-02-14T10:55:17;96862.88;;;8.90
72236;BMP280;60146;52.498;13.462;2024-02-14T10:57:43;96900.22;;;8.97
72236;BMP280;60146;52.498;13.462;2024-02-14T11:00:12;96909.00;;;8.83
72236;BMP280;60146;52.498;13.462;2024-02-14T11:02:40;96837.06;;;9.21
72236;BMP280;60146;52.498;13.462;2024-02-14T11:05:12;96882.81;;;9.47
72236;BMP280;60146;52.498;13.462;2024-02-14T11:07:46;96893.31;;;9.57
72236;BMP280;60146;52.498;13.462;2024-02-14T11:12:50;97220.06;;;10.35
72236;BMP280;60146;52.498;13.462;2024-02-14T11:15:18;97305.38;;;10.47
72236;BMP280;60146;52.498;13.462;2024-02-14T11:17:44;97402.28;;;10.50
72236;BMP280;60146;52.498;13.462;2024-02-14T11:20:31;97351.94;;;10.31
72236;BMP280;60146;52.498;13.462;2024-02-14T11:23:00;97344.13;;;10.38
72236;BMP280;60146;52.498;13.462;2024-02-14T11:25:29;97328.69;;;10.26
72236;BMP280;60146;52.498;13.462;2024-02-14T11:28:12;97297.69;;;9.96
72236;BMP280;60146;52.498;13.462;2024-02-14T11:30:39;97155.25;;;9.83
72236;BMP280;60146;52.498;13.462;2024-02-14T11:35:34;97048.28;;;9.65
72236;BMP280;60146;52.498;13.462;2024-02-14T11:37:59;96989.91;;;9.51
72236;BMP280;60146;52.498;13.462;2024-02-14T11:40:25;96916.41;;;9.52
72236;BMP280;60146;52.498;13.462;2024-02-14T11:42:51;96865.25;;;9.48
72236;BMP280;60146;52.498;13.462;2024-02-14T11:45:16;96804.81;;;9.46
72236;BMP280;60146;52.498;13.462;2024-02-14T11:47:41;96780.59;;;9.59
72236;BMP280;60146;52.498;13.462;2024-02-14T11:50:07;96752.31;;;9.74
72236;BMP280;60146;52.498;13.462;2024-02-14T11:52:34;96823.16;;;9.59
72236;BMP280;60146;52.498;13.462;2024-02-14T11:55:00;96770.91;;;9.59
72236;BMP280;60146;52.498;13.462;2024-02-14T11:57:26;96813.06;;;9.58
72236;BMP280;60146;52.498;13.462;2024-02-14T11:59:52;96789.56;;;9.58
72236;BMP280;60146;52.498;13.462;2024-02-14T12:02:19;96726.88;;;9.58
72236;BMP280;60146;52.498;13.462;2024-02-14T12:04:45;96730.94;;;9.52
72236;BMP280;60146;52.498;13.462;2024-02-14T12:07:12;96690.97;;;9.48
72236;BMP280;60146;52.498;13.462;2024-02-14T12:09:38;96652.19;;;9.47
72236;BMP280;60146;52.498;13.462;2024-02-14T12:12:04;96524.94;;;9.40
72236;BMP280;60146;52.498;13.462;2024-02-14T12:14:30;96430.94;;;9.27
72236;BMP280;60146;52.498;13.462;2024-02-14T12:17:00;96332.44;;;9.31
72236;BMP280;60146;52.498;13.462;2024-02-14T12:19:28;96229.13;;;9.33
72236;BMP280;60146;52.498;13.462;2024-02-14T12:21:54;96037.44;;;9.31
72236;BMP280;60146;52.498;13.462;2024-02-14T12:24:21;95560.34;;;9.41
72236;BMP280;60146;52.498;13.462;2024-02-14T12:26:48;95524.00;;;9.53
72236;BMP280;60146;52.498;13.462;2024-02-14T12:29:16;95487.50;;;9.50
72236;BMP280;60146;52.498;13.462;2024-02-14T12:31:42;95480.00;;;9.52
72236;BMP280;60146;52.498;13.462;2024-02-14T12:34:10;95441.81;;;9.61
72236;BMP280;60146;52.498;13.462;2024-02-14T12:36:36;95452.41;;;9.54
72236;BMP280;60146;52.498;13.462;2024-02-14T12:39:02;95432.91;;;9.59
72236;BMP280;60146;52.498;13.462;2024-02-14T12:41:28;95442.50;;;9.65
72236;BMP280;60146;52.498;13.462;2024-02-14T12:43:58;95449.47;;;9.72
72236;BMP280;60146;52.498;13.462;2024-02-14T12:46:23;95479.81;;;9.88
72236;BMP280;60146;52.498;13.462;2024-02-14T12:48:49;95515.03;;;10.03
72236;BMP280;60146;52.498;13.462;2024-02-14T12:51:15;95603.28;;;9.92
72236;BMP280;60146;52.498;13.462;2024-02-14T12:53:40;95542.66;;;10.00
72236;BMP280;60146;52.498;13.462;2024-02-14T12:56:07;95526.25;;;9.77
72236;BMP280;60146;52.498;13.462;2024-02-14T12:58:32;95466.53;;;9.79
72236;BMP280;60146;52.498;13.462;2024-02-14T13:00:58;95448.03;;;9.90
72236;BMP280;60146;52.498;13.462;2024-02-14T13:03:24;95431.22;;;9.91
72236;BMP280;60146;52.498;13.462;2024-02-14T13:05:50;95366.94;;;10.15
72236;BMP280;60146;52.498;13.462;2024-02-14T13:08:16;95461.97;;;10.25
72236;BMP280;60146;52.498;13.462;2024-02-14T13:10:41;95503.19;;;10.17
72236;BMP280;60146;52.498;13.462;2024-02-14T13:13:07;95517.38;;;10.39
72236;BMP280;60146;52.498;13.462;2024-02-14T13:15:32;95589.56;;;10.33
72236;BMP280;60146;52.498;13.462;2024-02-14T13:17:58;95596.03;;;10.25
72236;BMP280;60146;52.498;13.462;2024-02-14T13:20:24;95507.91;;;10.26
72236;BMP280;60146;52.498;13.462;2024-02-14T13:22:49;95452.75;;;10.20
72236;BMP280;60146;52.498;13.462;2024-02-14T13:25:15;95380.22;;;10.24
72236;BMP280;60146;52.498;13.462;2024-02-14T13:27:40;95313.56;;;10.32
72236;BMP280;60146;52.498;13.462;2024-02-14T13:30:06;95318.53;;;10.27
72236;BMP280;60146;52.498;13.462;2024-02-14T13:32:32;95325.78;;;10.19
72236;BMP280;60146;52.498;13.462;2024-02-14T13:34:57;95277.16;;;10.06
72236;BMP280;60146;52.498;13.462;2024-02-14T13:37:24;95214.94;;;10.01
72236;BMP280;60146;52.498;13.462;2024-02-14T13:39:50;95112.22;;;10.04
72236;BMP280;60146;52.498;13.462;2024-02-14T13:42:16;95046.97;;;10.01
72236;BMP280;60146;52.498;13.462;2024-02-14T13:44:41;94983.91;;;10.14
72236;BMP280;60146;52.498;13.462;2024-02-14T13:47:06;94949.78;;;10.06
72236;BMP280;60146;52.498;13.462;2024-02-14T13:49:32;94893.69;;;10.10
72236;BMP280;60146;52.498;13.462;2024-02-14T13:51:57;94790.13;;;10.28
72236;BMP280;60146;52.498;13.462;2024-02-14T13:54:23;94780.41;;;10.41
72236;BMP280;60146;52.498;13.462;2024-02-14T13:56:49;94850.16;;;10.44
72236;BMP280;60146;52.498;13.462;2024-02-14T13:59:15;94897.63;;;10.30
72236;BMP280;60146;52.498;13.462;2024-02-14T14:01:40;94850.75;;;10.23
72236;BMP280;60146;52.498;13.462;2024-02-14T14:04:06;94752.19;;;10.36
72236;BMP280;60146;52.498;13.462;2024-02-14T14:06:31;94691.13;;;10.42
72236;BMP280;60146;52.498;13.462;2024-02-14T14:08:57;94693.94;;;10.35
72236;BMP280;60146;52.498;13.462;2024-02-14T14:11:22;94671.94;;;10.45
72236;BMP280;60146;52.498;13.462;2024-02-14T14:13:48;94700.84;;;10.42